Time;durP1;ratioP1;P1;durP2;ratioP2;P2;SDS_P1;SDS_P2;PMS_P1;PMS_P2;Temp;Humidity;BMP_temperature;BMP_pressure;BME280_temperature;BME280_humidity;BME280_pressure;Samples;Min_cycle;Max_cycle;Signal;HPM_P1;HPM_P2
2021/12/03 00:00:18;;;;;;;0.00;0.00;;;;;;;;;;5082409;28;20051;-64
2021/12/03 00:02:45;;;;;;;0.00;0.00;;;;;;;;;;5085484;28;20043;-63
2021/12/03 00:05:11;;;;;;;0.20;0.20;;;;;;;;;;5087681;28;20377;-64
2021/12/03 00:07:40;;;;;;;0.00;0.00;;;;;;;;;;5084687;28;20418;-65
2021/12/03 00:10:07;;;;;;;0.00;0.00;;;;;;;;;;5085936;28;20411;-64
2021/12/03 00:12:34;;;;;;;0.00;0.00;;;;;;;;;;5086410;28;20017;-65
2021/12/03 00:15:00;;;;;;;0.00;0.00;;;;;;;;;;5085539;28;20032;-65
2021/12/03 00:17:26;;;;;;;0.00;0.00;;;;;;;;;;5085056;28;20346;-65
2021/12/03 00:19:52;;;;;;;0.00;0.00;;;;;;;;;;5083483;28;20043;-65
2021/12/03 00:22:18;;;;;;;0.00;0.00;;;;;;;;;;5088445;28;20023;-65
2021/12/03 00:24:44;;;;;;;0.00;0.00;;;;;;;;;;5090956;28;20024;-65
2021/12/03 00:27:10;;;;;;;0.00;0.00;;;;;;;;;;5088253;28;20408;-64
2021/12/03 00:29:36;;;;;;;0.00;0.00;;;;;;;;;;5090266;28;20036;-64
2021/12/03 00:32:02;;;;;;;0.00;0.00;;;;;;;;;;5088598;28;20036;-64
2021/12/03 00:34:28;;;;;;;0.00;0.00;;;;;;;;;;5088360;28;20111;-64
2021/12/03 00:36:55;;;;;;;0.00;0.00;;;;;;;;;;5089264;28;20028;-65
2021/12/03 00:39:22;;;;;;;0.00;0.00;;;;;;;;;;5087396;28;20047;-66
2021/12/03 00:41:55;;;;;;;0.00;0.00;;;;;;;;;;5090410;28;20103;-63
2021/12/03 00:44:23;;;;;;;0.00;0.00;;;;;;;;;;5089368;28;20024;-65
2021/12/03 00:46:49;;;;;;;0.00;0.00;;;;;;;;;;5087977;28;20130;-65
2021/12/03 00:49:15;;;;;;;0.00;0.00;;;;;;;;;;5089569;28;20040;-65
2021/12/03 00:51:41;;;;;;;0.00;0.00;;;;;;;;;;5089771;28;20036;-64
2021/12/03 00:54:08;;;;;;;0.00;0.00;;;;;;;;;;5088345;28;20028;-64
2021/12/03 00:56:34;;;;;;;0.00;0.00;;;;;;;;;;5086543;28;20029;-65
2021/12/03 00:59:00;;;;;;;0.00;0.00;;;;;;;;;;5089382;28;20030;-65
2021/12/03 01:01:26;;;;;;;0.00;0.00;;;;;;;;;;5090594;28;20056;-65
2021/12/03 01:03:52;;;;;;;0.00;0.00;;;;;;;;;;5085046;28;20370;-65
2021/12/03 01:06:18;;;;;;;0.00;0.00;;;;;;;;;;5088965;28;20031;-65
2021/12/03 01:08:45;;;;;;;0.00;0.00;;;;;;;;;;5089117;28;20028;-65
2021/12/03 01:11:12;;;;;;;0.00;0.00;;;;;;;;;;5090025;28;20036;-65
2021/12/03 01:13:39;;;;;;;0.00;0.00;;;;;;;;;;5087935;28;20063;-65
2021/12/03 01:16:05;;;;;;;0.00;0.00;;;;;;;;;;5085935;28;20376;-64
2021/12/03 01:18:31;;;;;;;0.00;0.00;;;;;;;;;;5088839;28;20043;-64
2021/12/03 01:20:58;;;;;;;0.00;0.00;;;;;;;;;;5087006;28;20028;-64
2021/12/03 01:23:24;;;;;;;0.00;0.00;;;;;;;;;;5086687;28;20119;-64
2021/12/03 01:25:50;;;;;;;0.00;0.00;;;;;;;;;;5087647;28;20819;-64
2021/12/03 01:28:16;;;;;;;0.00;0.00;;;;;;;;;;5089528;28;20024;-64
2021/12/03 01:30:42;;;;;;;0.00;0.00;;;;;;;;;;5087456;28;20028;-64
2021/12/03 01:38:55;;;;;;;0.00;0.00;;;;;;;;;;5032663;28;20057;-65
2021/12/03 01:41:21;;;;;;;0.00;0.00;;;;;;;;;;5026110;28;20488;-65
2021/12/03 01:43:47;;;;;;;0.00;0.00;;;;;;;;;;5027485;28;20038;-64
2021/12/03 01:46:18;;;;;;;0.00;0.00;;;;;;;;;;5027438;28;20038;-64
2021/12/03 01:48:44;;;;;;;0.00;0.00;;;;;;;;;;5027335;28;20071;-63
2021/12/03 01:51:10;;;;;;;0.00;0.00;;;;;;;;;;5022361;28;20025;-63
2021/12/03 01:53:38;;;;;;;0.00;0.00;;;;;;;;;;5030363;28;20108;-63
2021/12/03 01:56:09;;;;;;;0.00;0.00;;;;;;;;;;5026360;28;20040;-63
2021/12/03 01:58:36;;;;;;;0.00;0.00;;;;;;;;;;5025821;28;20079;-64
2021/12/03 02:01:05;;;;;;;0.00;0.00;;;;;;;;;;5027099;28;20037;-64
2021/12/03 02:03:32;;;;;;;0.00;0.00;;;;;;;;;;5026126;28;20087;-64
2021/12/03 02:05:58;;;;;;;0.00;0.00;;;;;;;;;;5026008;28;20056;-64
2021/12/03 02:08:25;;;;;;;0.00;0.00;;;;;;;;;;5023949;28;20475;-64
2021/12/03 02:10:51;;;;;;;0.00;0.00;;;;;;;;;;5041170;28;20030;-64
2021/12/03 02:13:17;;;;;;;0.00;0.00;;;;;;;;;;5025565;28;20983;-64
2021/12/03 02:15:43;;;;;;;0.00;0.00;;;;;;;;;;5026499;28;20466;-64
2021/12/03 02:18:10;;;;;;;0.00;0.00;;;;;;;;;;5026742;28;20037;-64
2021/12/03 02:20:41;;;;;;;0.00;0.00;;;;;;;;;;5024209;28;20025;-64
2021/12/03 02:23:07;;;;;;;0.00;0.00;;;;;;;;;;5023529;28;20087;-64
2021/12/03 02:25:33;;;;;;;0.00;0.00;;;;;;;;;;5023620;28;20037;-64
2021/12/03 02:27:59;;;;;;;0.00;0.00;;;;;;;;;;5023821;28;20181;-63
2021/12/03 02:30:25;;;;;;;0.00;0.00;;;;;;;;;;5024363;28;20466;-64
2021/12/03 02:32:52;;;;;;;0.00;0.00;;;;;;;;;;5024197;28;20177;-64
2021/12/03 02:35:20;;;;;;;0.00;0.00;;;;;;;;;;5023870;28;20128;-64
2021/12/03 02:37:47;;;;;;;0.00;0.00;;;;;;;;;;5022552;28;20044;-64
2021/12/03 02:40:14;;;;;;;0.00;0.00;;;;;;;;;;5022708;28;20103;-64
2021/12/03 02:42:40;;;;;;;2.88;2.67;;;;;;;;;;5023653;28;20037;-64
2021/12/03 02:45:06;;;;;;;0.00;0.00;;;;;;;;;;5022528;28;20025;-64
2021/12/03 02:47:32;;;;;;;0.00;0.00;;;;;;;;;;5023913;28;20045;-65
2021/12/03 02:49:59;;;;;;;0.00;0.00;;;;;;;;;;5024754;28;20041;-63
2021/12/03 02:52:25;;;;;;;0.00;0.00;;;;;;;;;;5022954;28;20033;-63
2021/12/03 02:54:51;;;;;;;0.00;0.00;;;;;;;;;;5024833;28;20048;-63
2021/12/03 02:57:17;;;;;;;0.80;0.80;;;;;;;;;;5024211;28;20363;-63
2021/12/03 02:59:43;;;;;;;0.00;0.00;;;;;;;;;;5024448;28;20059;-62
2021/12/03 03:02:09;;;;;;;0.00;0.00;;;;;;;;;;5026260;28;20057;-63
2021/12/03 03:04:35;;;;;;;0.00;0.00;;;;;;;;;;5022496;28;20026;-63
2021/12/03 03:07:01;;;;;;;0.00;0.00;;;;;;;;;;5025640;28;20025;-63
2021/12/03 03:09:27;;;;;;;0.00;0.00;;;;;;;;;;5022772;28;20038;-64
2021/12/03 03:11:54;;;;;;;0.00;0.00;;;;;;;;;;5025886;28;20029;-65
2021/12/03 03:14:20;;;;;;;0.00;0.00;;;;;;;;;;5023707;28;20501;-63
2021/12/03 03:16:47;;;;;;;0.00;0.00;;;;;;;;;;5028425;28;20048;-63
2021/12/03 03:19:14;;;;;;;0.00;0.00;;;;;;;;;;5025101;28;20040;-63
2021/12/03 03:21:40;;;;;;;0.00;0.00;;;;;;;;;;5026624;28;20037;-63
2021/12/03 03:24:07;;;;;;;0.00;0.00;;;;;;;;;;5023286;28;20474;-64
2021/12/03 03:26:37;;;;;;;0.00;0.00;;;;;;;;;;5026479;28;20029;-63
2021/12/03 03:29:04;;;;;;;0.00;0.00;;;;;;;;;;5023542;28;20030;-63
2021/12/03 03:31:31;;;;;;;0.00;0.00;;;;;;;;;;5028299;28;20493;-63
2021/12/03 03:33:58;;;;;;;0.00;0.00;;;;;;;;;;5023920;28;20030;-64
2021/12/03 03:36:24;;;;;;;0.00;0.00;;;;;;;;;;5025667;28;20065;-64
2021/12/03 03:38:50;;;;;;;0.00;0.00;;;;;;;;;;5024842;28;20088;-64
2021/12/03 03:41:16;;;;;;;0.00;0.00;;;;;;;;;;5025393;28;20105;-64
2021/12/03 03:43:42;;;;;;;0.00;0.00;;;;;;;;;;5023961;28;20359;-63
2021/12/03 03:46:08;;;;;;;0.00;0.00;;;;;;;;;;5024760;28;20033;-65
2021/12/03 03:48:34;;;;;;;0.00;0.00;;;;;;;;;;5025779;28;20048;-63
2021/12/03 03:51:00;;;;;;;0.00;0.00;;;;;;;;;;5026220;28;20548;-63
2021/12/03 03:53:26;;;;;;;0.00;0.00;;;;;;;;;;5027657;28;20116;-64
2021/12/03 03:55:52;;;;;;;0.10;0.10;;;;;;;;;;5028031;28;20549;-65
2021/12/03 03:58:18;;;;;;;0.00;0.00;;;;;;;;;;5028623;28;20421;-64
2021/12/03 04:00:45;;;;;;;0.00;0.00;;;;;;;;;;5028789;28;20025;-64
2021/12/03 04:03:11;;;;;;;0.00;0.00;;;;;;;;;;5027081;28;20503;-64
2021/12/03 04:05:37;;;;;;;0.00;0.00;;;;;;;;;;5030326;28;20057;-64
2021/12/03 04:08:03;;;;;;;0.00;0.00;;;;;;;;;;5029113;28;20065;-64
2021/12/03 04:10:29;;;;;;;0.00;0.00;;;;;;;;;;5028130;28;20052;-64
2021/12/03 04:12:55;;;;;;;0.00;0.00;;;;;;;;;;5029630;28;20452;-65
2021/12/03 04:15:22;;;;;;;0.00;0.00;;;;;;;;;;5028306;28;20048;-64
2021/12/03 04:17:48;;;;;;;0.00;0.00;;;;;;;;;;5028534;28;20389;-64
2021/12/03 04:20:15;;;;;;;0.00;0.00;;;;;;;;;;5028897;28;20141;-65
2021/12/03 04:22:41;;;;;;;0.00;0.00;;;;;;;;;;5029917;28;20446;-65
2021/12/03 04:25:09;;;;;;;0.00;0.00;;;;;;;;;;5028010;28;20104;-64
2021/12/03 04:27:35;;;;;;;0.00;0.00;;;;;;;;;;5029773;28;20049;-64
2021/12/03 04:30:01;;;;;;;0.00;0.00;;;;;;;;;;5027378;28;20037;-64
2021/12/03 04:32:27;;;;;;;0.00;0.00;;;;;;;;;;5028230;28;20055;-64
2021/12/03 04:34:54;;;;;;;0.00;0.00;;;;;;;;;;5027497;28;20113;-64
2021/12/03 04:37:20;;;;;;;0.00;0.00;;;;;;;;;;5027867;28;20136;-64
2021/12/03 04:39:46;;;;;;;0.00;0.00;;;;;;;;;;5024482;28;20053;-64
2021/12/03 04:42:12;;;;;;;0.00;0.00;;;;;;;;;;5028883;28;20029;-64
2021/12/03 04:44:39;;;;;;;0.00;0.00;;;;;;;;;;5027026;28;20022;-64
2021/12/03 04:47:05;;;;;;;0.00;0.00;;;;;;;;;;5028539;28;20032;-63
2021/12/03 04:49:31;;;;;;;0.00;0.00;;;;;;;;;;5028332;28;20034;-64
2021/12/03 04:51:57;;;;;;;0.00;0.00;;;;;;;;;;5029356;28;20176;-64
2021/12/03 04:54:24;;;;;;;0.00;0.00;;;;;;;;;;5028115;28;20026;-64
2021/12/03 04:56:50;;;;;;;0.00;0.00;;;;;;;;;;5028630;28;20041;-64
2021/12/03 04:59:16;;;;;;;0.00;0.00;;;;;;;;;;5027566;28;20179;-64
2021/12/03 05:01:42;;;;;;;0.00;0.00;;;;;;;;;;5026762;28;20033;-64
2021/12/03 05:04:08;;;;;;;0.00;0.00;;;;;;;;;;5027236;28;20382;-64
2021/12/03 05:07:04;;;;;;;0.00;0.00;;;;;;;;;;5027458;28;20034;-65
2021/12/03 05:09:31;;;;;;;0.00;0.00;;;;;;;;;;5027027;28;20045;-65
2021/12/03 05:11:57;;;;;;;0.00;0.00;;;;;;;;;;5027681;28;20057;-64
2021/12/03 05:14:23;;;;;;;0.00;0.00;;;;;;;;;;5027792;28;20474;-64
2021/12/03 05:16:49;;;;;;;0.00;0.00;;;;;;;;;;5028661;28;20055;-65
2021/12/03 05:19:16;;;;;;;0.00;0.00;;;;;;;;;;5027681;28;20033;-65
2021/12/03 05:21:43;;;;;;;0.00;0.00;;;;;;;;;;5028043;28;20025;-64
2021/12/03 05:24:09;;;;;;;0.00;0.00;;;;;;;;;;5025899;28;20080;-64
2021/12/03 05:26:38;;;;;;;0.00;0.00;;;;;;;;;;5026946;28;20036;-64
2021/12/03 05:29:05;;;;;;;0.00;0.00;;;;;;;;;;5026112;28;20037;-64
2021/12/03 05:31:32;;;;;;;0.00;0.00;;;;;;;;;;5026735;28;20104;-65
2021/12/03 05:33:58;;;;;;;0.00;0.00;;;;;;;;;;5027702;28;20474;-65
2021/12/03 05:36:24;;;;;;;0.00;0.00;;;;;;;;;;5027839;28;20040;-65
2021/12/03 05:38:50;;;;;;;0.00;0.00;;;;;;;;;;5026953;28;20056;-65
2021/12/03 05:41:17;;;;;;;0.08;0.08;;;;;;;;;;5026057;28;20474;-64
2021/12/03 05:43:43;;;;;;;0.00;0.00;;;;;;;;;;5026559;28;20029;-64
2021/12/03 05:46:09;;;;;;;0.00;0.00;;;;;;;;;;5024383;28;20040;-64
2021/12/03 05:48:35;;;;;;;0.00;0.00;;;;;;;;;;5027568;28;20386;-63
2021/12/03 05:51:01;;;;;;;0.00;0.00;;;;;;;;;;5026179;28;20105;-64
2021/12/03 05:53:27;;;;;;;0.00;0.00;;;;;;;;;;5027880;28;20029;-64
2021/12/03 05:55:54;;;;;;;0.00;0.00;;;;;;;;;;5027579;28;20025;-64
2021/12/03 05:58:20;;;;;;;0.00;0.00;;;;;;;;;;5024530;28;20030;-64
2021/12/03 06:00:47;;;;;;;0.10;0.10;;;;;;;;;;5025703;28;20033;-62
2021/12/03 06:03:13;;;;;;;0.00;0.00;;;;;;;;;;5025887;28;20025;-63
2021/12/03 06:05:40;;;;;;;0.00;0.00;;;;;;;;;;5025529;28;20097;-63
2021/12/03 06:08:06;;;;;;;0.00;0.00;;;;;;;;;;5023621;28;20381;-63
2021/12/03 06:10:33;;;;;;;0.00;0.00;;;;;;;;;;5025145;28;20121;-63
2021/12/03 06:12:59;;;;;;;0.00;0.00;;;;;;;;;;5026990;28;20091;-63
2021/12/03 06:15:25;;;;;;;0.00;0.00;;;;;;;;;;5026277;28;20029;-63
2021/12/03 06:17:51;;;;;;;0.00;0.00;;;;;;;;;;5028412;28;20025;-64
2021/12/03 06:20:18;;;;;;;0.00;0.00;;;;;;;;;;5026236;28;20057;-63
2021/12/03 06:22:44;;;;;;;1.40;1.40;;;;;;;;;;5027111;28;20136;-63
2021/12/03 06:25:11;;;;;;;0.00;0.00;;;;;;;;;;5025554;28;20470;-63
2021/12/03 06:27:38;;;;;;;0.00;0.00;;;;;;;;;;5025817;28;20021;-63
2021/12/03 06:30:07;;;;;;;0.00;0.00;;;;;;;;;;5025152;28;20083;-63
2021/12/03 06:32:33;;;;;;;0.00;0.00;;;;;;;;;;5026557;28;20423;-62
2021/12/03 06:34:59;;;;;;;0.00;0.00;;;;;;;;;;5026132;28;20030;-62
2021/12/03 06:37:25;;;;;;;0.10;0.10;;;;;;;;;;5026948;28;20075;-63
2021/12/03 06:39:51;;;;;;;0.20;0.20;;;;;;;;;;5026122;28;20129;-63
2021/12/03 06:42:17;;;;;;;0.05;0.05;;;;;;;;;;5041055;28;20393;-63
2021/12/03 06:44:43;;;;;;;0.00;0.00;;;;;;;;;;5025724;28;20116;-64
2021/12/03 06:47:09;;;;;;;0.00;0.00;;;;;;;;;;5025780;28;20500;-63
2021/12/03 06:49:35;;;;;;;0.00;0.00;;;;;;;;;;5026058;28;20120;-63
2021/12/03 06:52:05;;;;;;;0.00;0.00;;;;;;;;;;5026725;28;20033;-63
2021/12/03 06:54:33;;;;;;;0.00;0.00;;;;;;;;;;5025425;28;20060;-63
2021/12/03 06:57:00;;;;;;;0.00;0.00;;;;;;;;;;5024234;28;20498;-64
2021/12/03 06:59:26;;;;;;;0.30;0.30;;;;;;;;;;5024334;28;20445;-64
2021/12/03 07:01:53;;;;;;;0.00;0.00;;;;;;;;;;5025108;28;20026;-64
2021/12/03 07:04:19;;;;;;;0.00;0.00;;;;;;;;;;5024608;28;20036;-64
2021/12/03 07:06:45;;;;;;;0.00;0.00;;;;;;;;;;5025555;28;20761;-65
2021/12/03 07:09:11;;;;;;;0.00;0.00;;;;;;;;;;5024989;28;20116;-64
2021/12/03 07:11:37;;;;;;;0.00;0.00;;;;;;;;;;5024613;28;20105;-64
2021/12/03 07:14:04;;;;;;;0.00;0.00;;;;;;;;;;5025389;28;20047;-64
2021/12/03 07:16:30;;;;;;;0.00;0.00;;;;;;;;;;5024755;28;20474;-64
2021/12/03 07:18:56;;;;;;;0.00;0.00;;;;;;;;;;5025732;28;20056;-63
2021/12/03 07:21:22;;;;;;;0.00;0.00;;;;;;;;;;5026851;28;20037;-64
2021/12/03 07:23:50;;;;;;;0.00;0.00;;;;;;;;;;5025223;28;20050;-63
2021/12/03 07:26:16;;;;;;;0.00;0.00;;;;;;;;;;5025944;28;20038;-63
2021/12/03 07:28:43;;;;;;;0.00;0.00;;;;;;;;;;5025348;28;20037;-63
2021/12/03 07:31:09;;;;;;;0.00;0.00;;;;;;;;;;5031539;28;20033;-63
2021/12/03 07:33:35;;;;;;;0.00;0.00;;;;;;;;;;5032601;28;20033;-63
2021/12/03 07:36:02;;;;;;;0.00;0.00;;;;;;;;;;5031969;28;20045;-63
2021/12/03 07:38:28;;;;;;;0.00;0.00;;;;;;;;;;5031444;28;20026;-64
2021/12/03 07:40:54;;;;;;;0.00;0.00;;;;;;;;;;5032235;28;20032;-64
2021/12/03 07:43:20;;;;;;;0.00;0.00;;;;;;;;;;5030596;28;20026;-64
2021/12/03 07:45:47;;;;;;;0.00;0.00;;;;;;;;;;5028238;28;20041;-64
2021/12/03 07:48:13;;;;;;;0.00;0.00;;;;;;;;;;5032117;28;20080;-64
2021/12/03 07:50:41;;;;;;;0.00;0.00;;;;;;;;;;5032921;28;20040;-63
2021/12/03 07:53:08;;;;;;;0.00;0.00;;;;;;;;;;5030729;28;20061;-63
2021/12/03 07:55:34;;;;;;;0.00;0.00;;;;;;;;;;5032391;28;20132;-63
2021/12/03 07:58:00;;;;;;;0.00;0.00;;;;;;;;;;5032513;28;20033;-62
2021/12/03 08:00:26;;;;;;;0.00;0.00;;;;;;;;;;5032116;28;20079;-64
2021/12/03 08:02:52;;;;;;;0.00;0.00;;;;;;;;;;5034921;28;20021;-64
2021/12/03 08:05:18;;;;;;;0.00;0.00;;;;;;;;;;5032434;28;20029;-64
2021/12/03 08:07:46;;;;;;;0.00;0.00;;;;;;;;;;5032422;28;20132;-65
2021/12/03 08:10:13;;;;;;;0.00;0.00;;;;;;;;;;5029131;28;20037;-65
2021/12/03 08:12:40;;;;;;;0.00;0.00;;;;;;;;;;5033041;28;20546;-64
2021/12/03 08:15:07;;;;;;;0.00;0.00;;;;;;;;;;5032370;28;20358;-64
2021/12/03 08:17:33;;;;;;;0.00;0.00;;;;;;;;;;5032492;28;20029;-64
2021/12/03 08:19:59;;;;;;;0.00;0.00;;;;;;;;;;5032820;28;20025;-63
2021/12/03 08:22:25;;;;;;;0.00;0.00;;;;;;;;;;5031463;28;20837;-62
2021/12/03 08:24:51;;;;;;;0.00;0.00;;;;;;;;;;5032035;28;20112;-64
2021/12/03 08:27:17;;;;;;;0.00;0.00;;;;;;;;;;5032373;28;20061;-64
2021/12/03 08:29:43;;;;;;;2.40;2.30;;;;;;;;;;5031968;28;20140;-64
2021/12/03 08:32:10;;;;;;;0.00;0.00;;;;;;;;;;5032598;28;20493;-64
2021/12/03 08:34:36;;;;;;;0.00;0.00;;;;;;;;;;5031874;28;20025;-64
2021/12/03 08:37:03;;;;;;;0.05;0.05;;;;;;;;;;5034574;28;20040;-64
2021/12/03 08:39:32;;;;;;;0.00;0.00;;;;;;;;;;5030931;28;20041;-64
2021/12/03 08:41:59;;;;;;;0.00;0.00;;;;;;;;;;5029617;28;20027;-63
2021/12/03 08:44:25;;;;;;;0.00;0.00;;;;;;;;;;5027920;28;20483;-64
2021/12/03 08:46:57;;;;;;;0.00;0.00;;;;;;;;;;5032382;28;20386;-64
2021/12/03 08:57:21;;;;;;;0.00;0.00;;;;;;;;;;5028054;28;20048;-65
2021/12/03 08:59:47;;;;;;;0.00;0.00;;;;;;;;;;5028622;28;20028;-64
2021/12/03 09:02:13;;;;;;;0.00;0.00;;;;;;;;;;5029296;28;20063;-64
2021/12/03 09:04:39;;;;;;;0.00;0.00;;;;;;;;;;5028686;28;20034;-64
2021/12/03 09:07:05;;;;;;;0.00;0.00;;;;;;;;;;5028671;28;20128;-64
2021/12/03 09:09:32;;;;;;;0.00;0.00;;;;;;;;;;5026834;28;20067;-64
2021/12/03 09:11:58;;;;;;;0.00;0.00;;;;;;;;;;5027377;28;20025;-63
2021/12/03 09:14:34;;;;;;;0.00;0.00;;;;;;;;;;5027675;28;20435;-65
2021/12/03 09:19:37;;;;;;;0.00;0.00;;;;;;;;;;5025488;28;20029;-63
2021/12/03 09:22:04;;;;;;;0.00;0.00;;;;;;;;;;5028341;28;20107;-63
2021/12/03 09:24:36;;;;;;;0.00;0.00;;;;;;;;;;5025837;28;20026;-63
2021/12/03 09:27:02;;;;;;;0.00;0.00;;;;;;;;;;5042455;28;20116;-62
2021/12/03 09:29:34;;;;;;;0.00;0.00;;;;;;;;;;5025846;28;20046;-64
2021/12/03 09:32:00;;;;;;;0.00;0.00;;;;;;;;;;5026399;28;20033;-63
2021/12/03 09:34:32;;;;;;;0.00;0.00;;;;;;;;;;5026574;28;20034;-66
2021/12/03 09:36:58;;;;;;;0.00;0.00;;;;;;;;;;5026746;28;20553;-64
2021/12/03 09:39:25;;;;;;;0.17;0.17;;;;;;;;;;5027082;28;20041;-62
2021/12/03 09:41:53;;;;;;;0.00;0.00;;;;;;;;;;5028126;28;20033;-63
2021/12/03 09:44:19;;;;;;;0.00;0.00;;;;;;;;;;5042617;28;20026;-63
2021/12/03 09:46:46;;;;;;;0.47;0.47;;;;;;;;;;5028238;28;20387;-63
2021/12/03 09:56:39;;;;;;;0.00;0.00;;;;;;;;;;5027656;28;20053;-63
2021/12/03 10:15:13;;;;;;;0.00;0.00;;;;;;;;;;5027375;28;20549;-64
2021/12/03 10:17:46;;;;;;;0.00;0.00;;;;;;;;;;5025261;28;20029;-64
2021/12/03 10:25:44;;;;;;;0.00;0.00;;;;;;;;;;5027858;28;20025;-64
2021/12/03 10:34:07;;;;;;;0.00;0.00;;;;;;;;;;5022856;28;20036;-63
2021/12/03 10:36:54;;;;;;;0.00;0.00;;;;;;;;;;5028660;28;20087;-64
2021/12/03 10:39:47;;;;;;;0.00;0.00;;;;;;;;;;5025803;28;20072;-64
2021/12/03 10:47:56;;;;;;;0.00;0.00;;;;;;;;;;5027444;28;20060;-65
2021/12/03 10:56:15;;;;;;;0.00;0.00;;;;;;;;;;5026017;28;20069;-62
2021/12/03 11:07:13;;;;;;;0.00;0.00;;;;;;;;;;5023605;28;20176;-63
2021/12/03 13:14:22;;;;;;;0.00;0.00;;;;;;;;;;5030114;28;20095;-64
2021/12/03 13:56:39;;;;;;;0.00;0.00;;;;;;;;;;5027577;28;20121;-62
2021/12/03 14:07:52;;;;;;;3.50;0.63;;;;;;;;;;5026940;28;20030;-66
2021/12/03 14:56:16;;;;;;;0.00;0.00;;;;;;;;;;5028218;28;20065;-63
2021/12/03 15:04:04;;;;;;;0.00;0.00;;;;;;;;;;5026655;28;20116;-64
2021/12/03 15:06:39;;;;;;;0.00;0.00;;;;;;;;;;5025581;28;20033;-63
2021/12/03 15:09:29;;;;;;;0.00;0.00;;;;;;;;;;5025584;28;20029;-63
2021/12/03 15:12:30;;;;;;;0.00;0.00;;;;;;;;;;5025904;28;20021;-63
2021/12/03 15:15:36;;;;;;;0.00;0.00;;;;;;;;;;5025075;28;20037;-63
2021/12/03 15:23:16;;;;;;;0.00;0.00;;;;;;;;;;5026922;28;20056;-64
2021/12/03 15:31:04;;;;;;;0.00;0.00;;;;;;;;;;5025830;28;20116;-66
2021/12/03 15:33:50;;;;;;;0.00;0.00;;;;;;;;;;5026138;28;20033;-65
2021/12/03 15:36:25;;;;;;;0.00;0.00;;;;;;;;;;5025843;28;20092;-65
2021/12/03 16:13:37;;;;;;;0.00;0.00;;;;;;;;;;5028676;28;20697;-65
2021/12/03 16:51:57;;;;;;;1.55;1.45;;;;;;;;;;5029897;28;20103;-65
2021/12/03 16:53:55;;;;;;;10.65;10.25;;;;;;;;;;5023977;28;20033;-67
2021/12/03 16:56:25;;;;;;;0.00;0.00;;;;;;;;;;5028785;28;20044;-66
2021/12/03 16:58:51;;;;;;;0.00;0.00;;;;;;;;;;5029050;28;20075;-66
2021/12/03 17:01:27;;;;;;;0.35;0.35;;;;;;;;;;5029163;28;20053;-66
2021/12/03 17:47:22;;;;;;;0.00;0.00;;;;;;;;;;5028131;28;20036;-66
2021/12/03 17:50:08;;;;;;;0.45;0.45;;;;;;;;;;5028426;28;20513;-66
2021/12/03 17:58:11;;;;;;;0.00;0.00;;;;;;;;;;5027362;28;20795;-66
2021/12/03 18:00:47;;;;;;;0.00;0.00;;;;;;;;;;5026169;28;20028;-67
2021/12/03 18:03:28;;;;;;;0.00;0.00;;;;;;;;;;5027622;28;20025;-66
2021/12/03 18:14:31;;;;;;;0.00;0.00;;;;;;;;;;5026134;28;20116;-66
2021/12/03 18:17:19;;;;;;;0.00;0.00;;;;;;;;;;5025815;28;20486;-66
2021/12/03 18:47:58;;;;;;;0.00;0.00;;;;;;;;;;5005128;28;20444;-64
2021/12/03 18:55:51;;;;;;;0.00;0.00;;;;;;;;;;5024086;28;20486;-65
2021/12/03 18:58:19;;;;;;;0.00;0.00;;;;;;;;;;5027144;28;20033;-67
2021/12/03 19:00:46;;;;;;;0.13;0.13;;;;;;;;;;5025262;28;20046;-66
2021/12/03 19:03:24;;;;;;;0.00;0.00;;;;;;;;;;5027054;28;20024;-67
2021/12/03 19:06:10;;;;;;;0.00;0.00;;;;;;;;;;5026213;28;20482;-66
2021/12/03 19:11:27;;;;;;;0.00;0.00;;;;;;;;;;5025218;28;20037;-66
2021/12/03 19:13:53;;;;;;;1.85;1.75;;;;;;;;;;5027393;28;20451;-67
2021/12/03 19:16:23;;;;;;;0.00;0.00;;;;;;;;;;5026140;28;20327;-66
2021/12/03 19:18:52;;;;;;;1.45;0.75;;;;;;;;;;5025806;28;20108;-67
2021/12/03 19:21:23;;;;;;;0.00;0.00;;;;;;;;;;5026169;28;20025;-66
2021/12/03 19:23:54;;;;;;;0.00;0.00;;;;;;;;;;5025298;28;20097;-67
2021/12/03 19:26:20;;;;;;;0.00;0.00;;;;;;;;;;5025215;28;20030;-66
2021/12/03 19:28:48;;;;;;;0.00;0.00;;;;;;;;;;5027298;28;20029;-67
2021/12/03 19:31:14;;;;;;;0.00;0.00;;;;;;;;;;5025269;28;20038;-66
2021/12/03 19:33:40;;;;;;;0.00;0.00;;;;;;;;;;5025094;28;20064;-67
2021/12/03 19:36:06;;;;;;;0.00;0.00;;;;;;;;;;5026221;28;20032;-67
2021/12/03 19:38:36;;;;;;;0.05;0.05;;;;;;;;;;5023835;28;20045;-66
2021/12/03 19:41:11;;;;;;;0.00;0.00;;;;;;;;;;5024897;28;20057;-65
2021/12/03 19:43:43;;;;;;;0.00;0.00;;;;;;;;;;5025946;28;20021;-66
2021/12/03 19:46:13;;;;;;;0.00;0.00;;;;;;;;;;5025876;28;20056;-66
2021/12/03 19:48:49;;;;;;;0.20;0.20;;;;;;;;;;5026344;28;20037;-66
2021/12/03 19:51:16;;;;;;;0.00;0.00;;;;;;;;;;5025574;28;20032;-66
2021/12/03 19:56:22;;;;;;;0.00;0.00;;;;;;;;;;5024813;28;20042;-66
2021/12/03 19:58:48;;;;;;;0.00;0.00;;;;;;;;;;5026503;28;20108;-66
2021/12/03 20:01:15;;;;;;;0.80;0.80;;;;;;;;;;5024925;28;20033;-66
2021/12/03 20:03:41;;;;;;;0.68;0.68;;;;;;;;;;5025697;28;20025;-66
2021/12/03 20:06:07;;;;;;;0.00;0.00;;;;;;;;;;5025936;28;20092;-66
2021/12/03 20:08:35;;;;;;;0.00;0.00;;;;;;;;;;5026383;28;20094;-66
2021/12/03 20:11:06;;;;;;;0.00;0.00;;;;;;;;;;5024043;28;20033;-65
2021/12/03 20:13:32;;;;;;;0.00;0.00;;;;;;;;;;5025437;28;20354;-65
2021/12/03 20:16:10;;;;;;;1.38;1.25;;;;;;;;;;5026471;28;20394;-66
2021/12/03 20:21:02;;;;;;;0.00;0.00;;;;;;;;;;5026330;28;20029;-64
2021/12/03 20:23:59;;;;;;;0.00;0.00;;;;;;;;;;5024973;28;20060;-65
2021/12/03 20:31:38;;;;;;;0.00;0.00;;;;;;;;;;5025222;28;20038;-66
2021/12/03 20:34:26;;;;;;;0.00;0.00;;;;;;;;;;5027114;28;20502;-66
2021/12/03 20:37:06;;;;;;;0.00;0.00;;;;;;;;;;5023315;28;20473;-67
2021/12/03 20:39:39;;;;;;;0.55;0.55;;;;;;;;;;5029071;28;20045;-66
2021/12/03 20:42:16;;;;;;;0.00;0.00;;;;;;;;;;5028133;28;20029;-66
2021/12/03 20:52:42;;;;;;;0.00;0.00;;;;;;;;;;5027770;28;20567;-66
2021/12/03 21:10:54;;;;;;;0.00;0.00;;;;;;;;;;5028058;28;20049;-66
2021/12/03 21:13:58;;;;;;;0.03;0.03;;;;;;;;;;5029456;28;20533;-66
2021/12/03 21:16:49;;;;;;;0.10;0.10;;;;;;;;;;5025996;28;20045;-65
2021/12/03 21:22:06;;;;;;;0.00;0.00;;;;;;;;;;5029726;28;20033;-67
2021/12/03 21:24:35;;;;;;;1.17;1.13;;;;;;;;;;5029168;28;20048;-66
2021/12/03 21:27:06;;;;;;;0.00;0.00;;;;;;;;;;5043494;28;20033;-66
2021/12/03 21:29:52;;;;;;;0.00;0.00;;;;;;;;;;5029572;28;20045;-66
2021/12/03 21:32:27;;;;;;;0.43;0.43;;;;;;;;;;5026448;28;20068;-68
2021/12/03 21:43:10;;;;;;;0.00;0.00;;;;;;;;;;5028586;28;20156;-67
2021/12/03 21:45:37;;;;;;;0.00;0.00;;;;;;;;;;5029710;28;20505;-67
2021/12/03 21:48:03;;;;;;;0.00;0.00;;;;;;;;;;5027344;28;20112;-67
2021/12/03 21:50:29;;;;;;;0.00;0.00;;;;;;;;;;5030423;28;20033;-66
2021/12/03 21:52:58;;;;;;;0.00;0.00;;;;;;;;;;5032171;28;20027;-67
2021/12/03 21:55:26;;;;;;;3.95;3.85;;;;;;;;;;5032656;28;20367;-66
2021/12/03 21:57:53;;;;;;;0.85;0.10;;;;;;;;;;5031552;28;20132;-66
2021/12/03 22:00:20;;;;;;;0.00;0.00;;;;;;;;;;5032407;28;20071;-66
2021/12/03 22:02:46;;;;;;;0.00;0.00;;;;;;;;;;5030723;28;20056;-66
2021/12/03 22:05:12;;;;;;;0.00;0.00;;;;;;;;;;5032510;28;20466;-67
2021/12/03 22:07:38;;;;;;;0.00;0.00;;;;;;;;;;5032305;28;20043;-67
2021/12/03 22:10:04;;;;;;;2.20;2.20;;;;;;;;;;5031604;28;20056;-66
2021/12/03 22:12:30;;;;;;;0.00;0.00;;;;;;;;;;5030128;28;20029;-66
2021/12/03 22:14:56;;;;;;;0.00;0.00;;;;;;;;;;5033868;28;20048;-66
2021/12/03 22:17:22;;;;;;;0.00;0.00;;;;;;;;;;5031275;28;20021;-67
2021/12/03 22:19:48;;;;;;;0.00;0.00;;;;;;;;;;5013429;28;20043;-67
2021/12/03 22:22:14;;;;;;;0.00;0.00;;;;;;;;;;5033966;28;20026;-67
2021/12/03 22:24:41;;;;;;;0.00;0.00;;;;;;;;;;5033374;28;20053;-67
2021/12/03 22:27:08;;;;;;;0.00;0.00;;;;;;;;;;5031846;28;20043;-66
2021/12/03 22:29:35;;;;;;;0.00;0.00;;;;;;;;;;5031349;28;20029;-67
2021/12/03 22:32:02;;;;;;;0.13;0.13;;;;;;;;;;5032664;28;20029;-67
2021/12/03 22:34:28;;;;;;;0.00;0.00;;;;;;;;;;5033651;28;20533;-66
2021/12/03 22:36:54;;;;;;;0.00;0.00;;;;;;;;;;5029716;28;20120;-67
2021/12/03 22:39:20;;;;;;;0.00;0.00;;;;;;;;;;5033788;28;20120;-67
2021/12/03 22:41:48;;;;;;;0.00;0.00;;;;;;;;;;5029697;28;20034;-67
2021/12/03 22:44:15;;;;;;;0.00;0.00;;;;;;;;;;5038202;28;20056;-67
2021/12/03 22:46:46;;;;;;;0.00;0.00;;;;;;;;;;5030758;28;20032;-67
2021/12/03 22:54:07;;;;;;;0.00;0.00;;;;;;;;;;5032608;28;20041;-65
2021/12/03 22:56:33;;;;;;;0.00;0.00;;;;;;;;;;5032567;28;20471;-66
2021/12/03 22:58:59;;;;;;;0.00;0.00;;;;;;;;;;5032672;28;20083;-66
2021/12/03 23:01:25;;;;;;;0.00;0.00;;;;;;;;;;5044283;28;20478;-66
2021/12/03 23:03:52;;;;;;;0.00;0.00;;;;;;;;;;5031065;28;20025;-67
2021/12/03 23:06:18;;;;;;;0.00;0.00;;;;;;;;;;5031150;28;20076;-67
2021/12/03 23:08:45;;;;;;;0.00;0.00;;;;;;;;;;5031091;28;20037;-67
2021/12/03 23:11:11;;;;;;;0.52;0.52;;;;;;;;;;5029727;28;20041;-67
2021/12/03 23:13:37;;;;;;;0.00;0.00;;;;;;;;;;5029382;28;20025;-66
2021/12/03 23:16:04;;;;;;;0.00;0.00;;;;;;;;;;5009095;28;20029;-67
2021/12/03 23:18:30;;;;;;;0.00;0.00;;;;;;;;;;5032525;28;20029;-67
2021/12/03 23:20:57;;;;;;;0.00;0.00;;;;;;;;;;5030556;28;20031;-67
2021/12/03 23:23:24;;;;;;;0.00;0.00;;;;;;;;;;5036437;28;20079;-67
2021/12/03 23:25:53;;;;;;;0.00;0.00;;;;;;;;;;5031735;28;20025;-67
2021/12/03 23:28:19;;;;;;;0.00;0.00;;;;;;;;;;5028265;28;20020;-66